Terminal Aerodrome Forecast
Issued by NWS

Home | Current Version | Previous Version | Text Only | Print | Product List | Glossary On
Versions: 1 2 3 4 5 6 7 8 9 10 11 12 13 14 15 16 17 18 19 20 21 22 23
894
FTUS46 KMFR 201728
TAFLMT
TAF
KLMT 201728Z 2018/2118 30007KT P6SM VCSH BKN070
     FM202100 32010G16KT P6SM VCTS SCT060CB BKN080
     FM210300 33013KT P6SM VCSH BKN080 OVC120=

USA.gov is the U.S. government's official web portal to all federal, state and local government web resources and services.